Time;durP1;ratioP1;P1;durP2;ratioP2;P2;SDS_P1;SDS_P2;PMS_P1;PMS_P2;Temp;Humidity;BMP_temperature;BMP_pressure;BME280_temperature;BME280_humidity;BME280_pressure;Samples;Min_cycle;Max_cycle;Signal;HPM_P1;HPM_P2
2023/09/04 00:00:42;;;;;;;2.72;2.20;;;;;;;22.12;53.44;94396.41;5011349;28;20037;-92
2023/09/04 00:03:08;;;;;;;3.13;2.30;;;;;;;22.11;53.52;94389.41;5006252;28;20455;-93
2023/09/04 00:05:35;;;;;;;2.38;2.10;;;;;;;22.12;53.28;94390.91;4992892;28;20029;-92
2023/09/04 00:08:01;;;;;;;5.88;2.45;;;;;;;22.12;53.56;94393.66;5001903;28;20060;-93
2023/09/04 00:10:26;;;;;;;4.30;2.53;;;;;;;22.10;53.47;94379.66;4994722;28;20473;-93
2023/09/04 00:12:52;;;;;;;4.43;2.63;;;;;;;22.10;53.09;94382.41;5011240;28;20339;-92
2023/09/04 00:15:17;;;;;;;2.33;2.13;;;;;;;22.09;53.21;94391.19;5012146;28;20042;-93
2023/09/04 00:17:43;;;;;;;3.90;2.30;;;;;;;22.10;53.30;94387.91;4993371;28;20107;-93
2023/09/04 00:20:11;;;;;;;3.67;2.60;;;;;;;22.07;53.21;94388.97;5011232;28;20258;-93
2023/09/04 00:22:36;;;;;;;3.53;2.45;;;;;;;22.08;53.33;94398.72;4994634;28;20080;-93
2023/09/04 00:25:02;;;;;;;2.90;2.60;;;;;;;22.09;53.46;94394.69;5000247;28;20042;-92
2023/09/04 00:27:27;;;;;;;3.03;2.38;;;;;;;22.10;53.09;94404.44;5007382;28;20053;-93
2023/09/04 00:29:53;;;;;;;3.10;2.10;;;;;;;22.10;53.18;94398.94;5010883;28;20052;-92
2023/09/04 00:32:18;;;;;;;2.63;2.22;;;;;;;22.08;53.24;94409.72;4993781;28;20044;-93
2023/09/04 00:34:43;;;;;;;4.22;2.17;;;;;;;22.11;53.33;94413.44;4994466;28;20120;-92
2023/09/04 00:37:10;;;;;;;3.88;2.55;;;;;;;22.09;53.25;94404.94;4997700;28;20447;-92
2023/09/04 00:39:36;;;;;;;3.45;2.53;;;;;;;22.09;53.25;94407.69;5007914;28;20042;-92
2023/09/04 00:42:04;;;;;;;2.50;2.10;;;;;;;22.07;53.17;94413.75;4991379;28;20045;-93
2023/09/04 00:44:30;;;;;;;3.78;2.55;;;;;;;22.08;53.44;94415.25;4994008;28;20045;-92
2023/09/04 00:46:57;;;;;;;2.53;2.28;;;;;;;22.07;53.27;94416.50;5011227;28;20037;-92
2023/09/04 00:49:23;;;;;;;3.58;2.53;;;;;;;22.07;53.28;94419.25;5010028;28;20049;-93
2023/09/04 00:51:50;;;;;;;2.83;2.28;;;;;;;22.09;53.06;94419.47;5009235;28;20425;-94
2023/09/04 00:54:16;;;;;;;3.45;2.38;;;;;;;22.08;53.21;94423.50;5010483;28;20067;-94
2023/09/04 00:56:42;;;;;;;4.72;2.72;;;;;;;22.07;53.16;94422.00;5010248;28;20759;-93
2023/09/04 00:59:08;;;;;;;3.17;2.33;;;;;;;22.07;53.10;94426.75;5002436;28;20057;-92
2023/09/04 01:01:33;;;;;;;2.50;2.08;;;;;;;22.07;53.00;94416.50;5007257;28;20046;-93
2023/09/04 01:03:59;;;;;;;3.78;2.17;;;;;;;22.06;53.23;94422.50;4993711;28;20036;-92
2023/09/04 01:06:24;;;;;;;4.50;2.40;;;;;;;22.07;52.96;94429.53;4993380;28;20049;-92
2023/09/04 01:08:50;;;;;;;3.83;2.58;;;;;;;22.07;53.14;94432.28;4993417;28;20493;-93
2023/09/04 01:11:27;;;;;;;2.72;2.00;;;;;;;22.05;53.27;94432.78;5010553;28;20037;-92
2023/09/04 01:13:56;;;;;;;3.42;2.38;;;;;;;22.06;53.27;94442.53;5006052;28;20046;-93
2023/09/04 01:16:22;;;;;;;3.05;2.53;;;;;;;22.05;53.18;94443.03;4993273;28;20121;-92
2023/09/04 01:18:48;;;;;;;3.03;2.20;;;;;;;22.06;53.16;94441.78;4993678;28;20235;-93
2023/09/04 01:21:13;;;;;;;2.65;2.15;;;;;;;22.05;53.15;94437.53;4992067;28;20050;-92
2023/09/04 01:23:39;;;;;;;3.33;2.55;;;;;;;22.04;53.11;94428.53;4993845;28;20569;-92
2023/09/04 01:26:25;;;;;;;3.30;2.45;;;;;;;22.05;53.16;94432.03;5010292;28;20049;-92
2023/09/04 01:29:03;;;;;;;2.75;2.33;;;;;;;22.03;53.03;94429.78;5011123;28;20081;-92
2023/09/04 01:31:32;;;;;;;3.08;2.50;;;;;;;22.03;53.40;94440.81;5030104;28;20045;-93
2023/09/04 01:34:05;;;;;;;3.10;2.40;;;;;;;22.04;53.16;94427.78;4986780;28;20038;-92
2023/09/04 01:36:32;;;;;;;3.20;2.50;;;;;;;22.03;52.90;94427.03;4993965;28;20053;-92
2023/09/04 01:38:58;;;;;;;5.75;2.75;;;;;;;22.04;53.12;94436.78;5023586;28;20077;-92
2023/09/04 01:41:23;;;;;;;3.85;2.40;;;;;;;22.03;52.84;94438.03;5011994;28;20100;-92
2023/09/04 01:43:49;;;;;;;2.53;2.25;;;;;;;22.05;53.06;94429.28;5014513;28;20041;-92
2023/09/04 01:46:14;;;;;;;3.05;2.40;;;;;;;22.03;52.77;94435.28;4997186;28;20498;-92
2023/09/04 01:48:40;;;;;;;3.25;2.20;;;;;;;22.03;53.11;94437.28;5006452;28;20079;-93
2023/09/04 01:51:06;;;;;;;3.60;2.83;;;;;;;22.03;53.09;94440.06;5008031;28;20026;-94
2023/09/04 01:53:31;;;;;;;2.53;2.15;;;;;;;22.03;53.15;94435.28;5013588;28;20042;-93
2023/09/04 01:55:59;;;;;;;2.85;2.17;;;;;;;22.02;53.13;94425.53;4994676;28;20200;-93
2023/09/04 01:58:25;;;;;;;3.85;2.30;;;;;;;22.03;53.11;94420.78;5002729;28;20057;-92
2023/09/04 02:00:51;;;;;;;2.72;2.05;;;;;;;22.02;53.16;94425.53;4997477;28;20178;-92
2023/09/04 02:03:16;;;;;;;3.90;2.22;;;;;;;22.02;53.27;94424.78;5013391;28;20034;-92
2023/09/04 02:05:42;;;;;;;3.35;2.55;;;;;;;22.03;52.80;94426.28;4997840;28;20046;-92
2023/09/04 02:08:08;;;;;;;3.35;2.33;;;;;;;22.03;52.78;94424.28;5001832;28;20183;-93
2023/09/04 02:10:35;;;;;;;3.22;2.45;;;;;;;22.02;52.88;94422.78;4993480;28;20033;-93
2023/09/04 02:13:00;;;;;;;3.13;2.42;;;;;;;22.02;52.93;94420.03;4995379;28;20069;-92
2023/09/04 02:15:26;;;;;;;3.22;2.53;;;;;;;22.03;52.72;94431.78;5010783;28;20041;-93
2023/09/04 02:17:52;;;;;;;2.58;2.38;;;;;;;22.02;52.95;94427.53;4996729;28;20423;-92
2023/09/04 02:20:17;;;;;;;2.88;2.40;;;;;;;22.03;52.87;94429.03;5012729;28;20084;-92
2023/09/04 02:22:43;;;;;;;2.70;2.10;;;;;;;22.03;52.39;94429.78;4989488;28;20555;-92
2023/09/04 02:25:09;;;;;;;2.40;2.15;;;;;;;22.02;52.60;94425.53;4997118;28;20107;-93
2023/09/04 02:27:34;;;;;;;2.30;2.10;;;;;;;22.01;52.94;94437.81;5012600;28;20045;-92
2023/09/04 02:30:03;;;;;;;2.55;1.98;;;;;;;22.02;52.76;94435.81;5013569;28;20041;-92
2023/09/04 02:32:28;;;;;;;3.10;2.42;;;;;;;22.01;52.50;94429.53;5012619;28;20180;-93
2023/09/04 02:34:53;;;;;;;2.85;2.53;;;;;;;22.02;52.82;94433.03;4997586;28;20330;-92
2023/09/04 02:37:19;;;;;;;2.65;2.20;;;;;;;22.03;52.66;94431.78;4980515;28;20034;-92
2023/09/04 02:39:44;;;;;;;3.10;2.58;;;;;;;22.01;52.49;94428.78;5028053;28;20048;-92
2023/09/04 02:42:10;;;;;;;3.53;2.65;;;;;;;22.01;52.86;94415.03;4992474;28;20111;-93
2023/09/04 02:44:35;;;;;;;2.95;2.40;;;;;;;22.00;52.74;94419.78;5009481;28;20038;-93
2023/09/04 02:47:01;;;;;;;4.20;2.33;;;;;;;22.01;52.80;94401.25;4989017;28;20127;-93
2023/09/04 02:49:26;;;;;;;2.22;2.03;;;;;;;22.01;52.79;94404.00;4993102;28;20049;-92
2023/09/04 02:51:52;;;;;;;4.50;2.25;;;;;;;22.01;52.68;94395.75;5005234;28;20072;-92
2023/09/04 02:54:17;;;;;;;2.53;2.17;;;;;;;21.98;52.85;94400.25;4996560;28;20476;-92
2023/09/04 02:56:43;;;;;;;2.53;2.20;;;;;;;21.98;52.70;94400.25;4996121;28;20044;-93
2023/09/04 02:59:09;;;;;;;2.38;2.10;;;;;;;21.99;52.70;94407.25;5005183;28;20046;-92
2023/09/04 03:01:35;;;;;;;3.22;2.17;;;;;;;22.00;52.62;94405.25;5012540;28;20091;-93
2023/09/04 03:04:00;;;;;;;2.55;2.00;;;;;;;22.00;52.76;94416.25;4994911;28;20042;-92
2023/09/04 03:06:25;;;;;;;2.00;1.80;;;;;;;21.99;53.12;94418.25;4972724;28;20050;-92
2023/09/04 03:08:51;;;;;;;2.58;2.10;;;;;;;21.97;52.73;94418.03;4977706;28;20049;-92
2023/09/04 03:11:16;;;;;;;2.80;2.08;;;;;;;21.98;52.85;94421.53;4972499;28;20037;-93
2023/09/04 03:13:43;;;;;;;2.67;2.13;;;;;;;21.98;53.03;94410.50;4978010;28;20539;-92
2023/09/04 03:16:08;;;;;;;3.10;2.13;;;;;;;21.98;52.89;94416.78;4962081;28;20479;-92
2023/09/04 03:18:34;;;;;;;2.95;2.03;;;;;;;22.00;52.65;94421.75;4993345;28;20046;-92
2023/09/04 03:21:02;;;;;;;3.33;2.13;;;;;;;22.00;52.58;94411.53;4971003;28;20473;-92
2023/09/04 03:23:27;;;;;;;2.97;1.98;;;;;;;21.99;53.06;94410.00;4978065;28;20046;-92
2023/09/04 03:25:54;;;;;;;11.25;2.60;;;;;;;22.01;52.74;94409.53;4965014;28;20408;-89
2023/09/04 03:28:20;;;;;;;4.45;1.95;;;;;;;22.01;52.29;94407.53;4988781;28;20046;-90
2023/09/04 03:30:47;;;;;;;3.20;2.10;;;;;;;22.02;52.85;94402.75;4989756;28;20570;-93
2023/09/04 03:33:13;;;;;;;16.98;6.97;;;;;;;22.05;51.62;94407.25;5014915;28;20037;-92
2023/09/04 03:35:39;;;;;;;8.90;5.82;;;;;;;21.98;48.65;94408.50;4993685;28;20034;-92
2023/09/04 03:38:08;;;;;;;8.93;5.75;;;;;;;21.75;48.50;94413.41;4998267;28;20068;-93
2023/09/04 03:40:33;;;;;;;9.65;4.40;;;;;;;21.45;49.09;94418.78;5038821;28;20484;-92
2023/09/04 03:42:59;;;;;;;12.90;7.60;;;;;;;21.29;49.85;94422.34;4999144;28;20136;-92
2023/09/04 03:45:37;;;;;;;7.43;5.00;;;;;;;21.20;49.39;94417.16;5007532;28;20444;-92
2023/09/04 03:48:24;;;;;;;11.00;4.30;;;;;;;20.87;50.03;94431.69;5017512;28;20037;-91
2023/09/04 03:50:50;;;;;;;8.80;4.28;;;;;;;20.77;49.73;94414.72;4992461;28;20652;-93
2023/09/04 03:53:15;;;;;;;52.50;8.60;;;;;;;20.54;49.95;94410.50;5008367;28;20044;-91
2023/09/04 03:55:48;;;;;;;67.93;12.30;;;;;;;20.52;50.15;94416.50;5001436;28;20080;-92
2023/09/04 03:58:14;;;;;;;21.00;8.32;;;;;;;20.49;50.36;94419.47;5003224;28;20061;-92
2023/09/04 04:00:39;;;;;;;39.05;16.52;;;;;;;20.43;50.16;94422.22;5019262;28;20045;-91
2023/09/04 04:03:07;;;;;;;44.25;20.05;;;;;;;20.42;50.18;94428.97;5005964;28;20044;-94
2023/09/04 04:05:35;;;;;;;92.10;42.85;;;;;;;20.49;50.50;94433.22;5008020;28;20045;-95
2023/09/04 04:08:01;;;;;;;31.33;15.77;;;;;;;20.52;49.80;94432.22;4993869;28;20053;-93
2023/09/04 04:10:26;;;;;;;133.98;48.15;;;;;;;20.62;49.96;94430.69;5005811;28;20064;-94
2023/09/04 04:12:56;;;;;;;84.45;31.67;;;;;;;20.52;49.25;94432.22;4999982;28;20137;-93
2023/09/04 04:15:23;;;;;;;77.20;27.65;;;;;;;20.45;49.11;94432.72;5016331;28;20069;-91
2023/09/04 04:17:48;;;;;;;64.05;24.90;;;;;;;20.51;48.93;94436.22;5035388;28;20049;-91
2023/09/04 04:20:15;;;;;;;70.43;36.33;;;;;;;20.44;48.81;94442.19;5000911;28;20033;-92
2023/09/04 04:22:41;;;;;;;275.38;115.05;;;;;;;20.46;48.54;94448.69;4995126;28;20782;-89
2023/09/04 04:25:07;;;;;;;229.63;80.97;;;;;;;20.43;48.82;94448.94;4995795;28;20042;-93
2023/09/04 04:27:34;;;;;;;204.25;60.20;;;;;;;20.39;48.94;94454.69;5011192;28;20053;-93
2023/09/04 04:30:08;;;;;;;176.52;49.03;;;;;;;20.40;48.97;94442.44;4998850;28;20041;-92
2023/09/04 04:32:40;;;;;;;132.43;43.28;;;;;;;20.36;48.87;94438.41;5001376;28;20060;-94
2023/09/04 04:35:31;;;;;;;152.25;47.38;;;;;;;20.35;49.13;94436.94;4992004;28;20034;-93
2023/09/04 04:37:59;;;;;;;238.95;100.10;;;;;;;20.31;49.24;94434.44;4973476;28;20144;-93
2023/09/04 04:40:25;;;;;;;92.88;37.45;;;;;;;20.40;49.08;94436.19;4979282;28;20072;-92
2023/09/04 04:42:51;;;;;;;125.80;48.90;;;;;;;20.38;48.95;94439.44;4971494;28;20846;-92
2023/09/04 04:45:18;;;;;;;75.75;33.08;;;;;;;20.30;48.81;94448.66;4962689;28;20042;-92
2023/09/04 04:47:44;;;;;;;67.18;26.08;;;;;;;20.22;49.07;94444.91;4985023;28;20074;-92
2023/09/04 04:50:12;;;;;;;22.83;11.98;;;;;;;20.31;48.73;94439.94;4977570;28;20039;-93
2023/09/04 04:52:38;;;;;;;182.55;40.78;;;;;;;20.31;48.74;94436.44;4969552;28;20058;-93
2023/09/04 04:55:06;;;;;;;28.63;12.18;;;;;;;20.39;48.85;94437.44;4969850;28;20045;-91
2023/09/04 04:57:33;;;;;;;45.20;18.02;;;;;;;20.27;48.93;94430.44;4973288;28;20045;-91
2023/09/04 04:59:58;;;;;;;43.83;16.92;;;;;;;20.25;48.65;94439.16;4973976;28;20038;-90
2023/09/04 05:02:24;;;;;;;42.78;15.30;;;;;;;20.26;48.89;94446.16;4969510;28;20050;-93
2023/09/04 05:04:58;;;;;;;36.10;15.60;;;;;;;20.30;48.81;94449.41;4999904;28;20120;-94
2023/09/04 05:07:25;;;;;;;41.53;15.10;;;;;;;20.26;48.90;94461.88;4980338;28;20050;-93
2023/09/04 05:10:00;;;;;;;49.22;14.63;;;;;;;20.29;48.57;94453.41;4964170;28;20081;-92
2023/09/04 05:12:26;;;;;;;14.32;6.63;;;;;;;20.26;48.67;94448.16;4988626;28;20536;-91
2023/09/04 05:14:53;;;;;;;24.88;7.20;;;;;;;20.19;48.65;94454.88;4972127;28;20136;-92
2023/09/04 05:17:21;;;;;;;29.30;5.80;;;;;;;20.09;48.89;94454.38;4974364;28;20046;-94
2023/09/04 05:19:49;;;;;;;49.33;5.20;;;;;;;19.94;49.32;94458.56;4980677;28;20064;-92
2023/09/04 05:22:16;;;;;;;14.48;4.75;;;;;;;19.86;49.48;94466.56;4971980;28;20046;-91
2023/09/04 05:24:43;;;;;;;28.98;11.70;;;;;;;19.68;49.76;94477.97;4972292;28;20117;-92
2023/09/04 05:27:14;;;;;;;35.80;16.73;;;;;;;19.59;50.28;94491.88;4977130;28;20066;-93
2023/09/04 05:29:39;;;;;;;24.02;11.82;;;;;;;19.51;50.13;94486.13;4981131;28;20156;-91
2023/09/04 05:32:05;;;;;;;23.10;9.02;;;;;;;19.44;50.71;94489.31;4953837;28;20038;-93
2023/09/04 05:34:31;;;;;;;16.17;7.25;;;;;;;19.31;50.80;94497.94;4958680;28;20046;-93
2023/09/04 05:36:56;;;;;;;9.75;5.32;;;;;;;19.25;50.98;94485.47;4936083;28;20043;-93
2023/09/04 05:39:22;;;;;;;13.27;5.68;;;;;;;19.14;51.72;94477.94;4930965;28;20047;-93
2023/09/04 05:41:48;;;;;;;16.10;6.07;;;;;;;19.12;51.57;94480.41;4927622;28;20535;-91
2023/09/04 05:44:13;;;;;;;18.27;4.78;;;;;;;19.13;51.56;94484.66;4964740;28;20132;-93
2023/09/04 05:46:39;;;;;;;15.85;4.32;;;;;;;19.16;51.68;94481.69;4950520;28;20047;-92
2023/09/04 05:49:07;;;;;;;17.20;5.75;;;;;;;19.11;51.95;94496.09;4976822;28;20080;-92
2023/09/04 05:51:32;;;;;;;13.45;5.38;;;;;;;19.17;51.79;94507.09;4954906;28;20051;-93
2023/09/04 05:53:58;;;;;;;18.17;7.32;;;;;;;19.13;51.73;94495.63;4964756;28;20054;-93
2023/09/04 05:56:26;;;;;;;19.27;6.25;;;;;;;19.10;51.81;94497.34;4963964;28;20047;-92
2023/09/04 05:58:56;;;;;;;23.58;7.22;;;;;;;19.03;52.20;94491.59;4959999;28;20127;-93
2023/09/04 06:01:35;;;;;;;;;;;;;;;;;;;;;
2023/09/04 06:04:32;;;;;;;17.13;7.65;;;;;;;18.99;52.06;94493.78;4959008;28;20130;-93
2023/09/04 06:07:04;;;;;;;32.92;15.43;;;;;;;18.94;52.09;94495.25;4860740;29;20042;-92
2023/09/04 06:10:06;;;;;;;30.73;13.05;;;;;;;19.00;51.90;94495.28;4842542;29;20066;-93
2023/09/04 06:16:04;;;;;;;12.40;7.22;;;;;;;18.97;52.45;94502.50;5043662;23;20044;-93
2023/09/04 06:18:53;;;;;;;18.58;6.35;;;;;;;18.95;52.61;94512.44;5039144;28;20056;-94
2023/09/04 06:21:24;;;;;;;12.00;6.20;;;;;;;18.93;52.37;94510.19;5002299;28;20485;-92
2023/09/04 06:23:50;;;;;;;14.75;7.38;;;;;;;18.97;52.09;94513.47;5016824;28;20132;-91
2023/09/04 06:26:15;;;;;;;40.50;19.10;;;;;;;18.96;52.33;94509.22;4998972;28;20121;-93
2023/09/04 06:28:41;;;;;;;13.43;6.72;;;;;;;19.13;51.54;94512.06;4991549;28;20050;-89
2023/09/04 06:31:06;;;;;;;9.60;5.20;;;;;;;19.17;51.77;94518.06;5003907;28;20393;-91
2023/09/04 06:33:36;;;;;;;18.13;7.28;;;;;;;19.23;52.13;94502.41;5019180;28;20050;-91
2023/09/04 06:36:03;;;;;;;9.57;5.20;;;;;;;19.34;51.73;94494.25;4994474;28;20034;-91
2023/09/04 06:38:29;;;;;;;9.82;4.97;;;;;;;19.34;51.52;94496.97;4991321;28;20050;-90
2023/09/04 06:40:57;;;;;;;15.63;7.47;;;;;;;19.34;51.61;94494.25;4975115;28;20042;-90
2023/09/04 06:43:27;;;;;;;18.23;7.85;;;;;;;19.41;51.33;94485.56;4976642;28;20050;-93
2023/09/04 06:45:55;;;;;;;27.17;9.20;;;;;;;19.45;51.47;94494.31;4992857;28;20117;-92
2023/09/04 06:48:22;;;;;;;16.80;7.05;;;;;;;19.48;51.52;94490.59;4980784;28;20132;-93
2023/09/04 06:50:49;;;;;;;33.20;17.33;;;;;;;19.54;51.36;94500.84;4962134;28;20042;-93
2023/09/04 06:53:16;;;;;;;36.72;15.50;;;;;;;19.59;51.45;94508.34;4964225;28;20050;-93
2023/09/04 06:55:43;;;;;;;35.15;12.77;;;;;;;19.69;51.18;94512.41;4961137;28;20046;-91
2023/09/04 06:58:12;;;;;;;26.30;11.02;;;;;;;19.59;51.51;94509.09;4973832;28;20070;-92
2023/09/04 07:01:09;;;;;;;45.47;23.00;;;;;;;19.69;51.53;94501.41;4968782;28;20046;-93
2023/09/04 07:04:00;;;;;;;44.13;20.67;;;;;;;19.73;51.67;94501.91;4941634;28;20053;-94
2023/09/04 07:06:27;;;;;;;97.68;31.23;;;;;;;19.74;51.29;94490.44;4944181;28;20058;-91
2023/09/04 07:08:55;;;;;;;56.13;25.45;;;;;;;19.79;51.33;94484.25;4918295;29;20047;-94
2023/09/04 07:11:24;;;;;;;85.75;28.67;;;;;;;19.79;51.38;94488.97;4911324;29;20032;-93
2023/09/04 07:13:57;;;;;;;63.38;23.85;;;;;;;19.83;51.35;94498.47;4905011;29;20134;-92
2023/09/04 07:16:38;;;;;;;77.18;27.23;;;;;;;19.85;51.29;94487.75;4934302;29;20221;-93
2023/09/04 07:19:13;;;;;;;25.60;12.15;;;;;;;19.87;51.58;94487.25;4903030;28;20462;-92
2023/09/04 07:21:42;;;;;;;25.55;12.57;;;;;;;19.80;51.81;94496.72;4913389;29;20043;-93
2023/09/04 07:24:08;;;;;;;32.65;16.40;;;;;;;19.90;51.47;94502.75;4921179;28;20039;-92
2023/09/04 07:26:36;;;;;;;53.80;28.70;;;;;;;19.93;51.21;94501.72;4929216;29;20039;-93
2023/09/04 07:29:01;;;;;;;64.13;35.00;;;;;;;19.90;51.50;94502.00;4941600;29;20496;-90
2023/09/04 07:31:29;;;;;;;72.75;33.55;;;;;;;19.93;50.97;94509.97;4905273;29;20134;-92
2023/09/04 07:33:54;;;;;;;82.57;42.15;;;;;;;20.01;50.84;94516.50;4911849;29;20494;-91
2023/09/04 07:36:21;;;;;;;128.52;66.32;;;;;;;20.01;51.04;94527.47;4950597;28;20041;-94
2023/09/04 07:38:47;;;;;;;76.10;39.05;;;;;;;20.04;50.97;94525.72;5031099;28;20084;-93
2023/09/04 07:41:13;;;;;;;58.40;28.42;;;;;;;19.97;50.92;94528.94;5003043;28;20037;-96
2023/09/04 07:43:41;;;;;;;151.27;84.80;;;;;;;19.96;51.07;94532.94;4996300;28;20048;-93
2023/09/04 07:46:08;;;;;;;150.02;63.53;;;;;;;20.00;51.10;94517.72;4975965;28;20060;-94
2023/09/04 07:48:37;;;;;;;63.17;26.95;;;;;;;20.01;50.94;94530.22;5001852;28;20046;-94
2023/09/04 08:14:41;;;;;;;46.15;14.02;;;;;;;20.11;49.78;94528.00;5153163;23;20045;-91
2023/09/04 08:17:23;;;;;;;27.33;10.18;;;;;;;20.07;49.60;94539.22;5000447;28;20045;-91
2023/09/04 08:19:49;;;;;;;29.85;8.57;;;;;;;20.07;49.59;94536.47;4996839;28;20097;-91
2023/09/04 08:22:20;;;;;;;40.17;13.48;;;;;;;20.08;49.72;94542.72;4998716;28;20045;-92
2023/09/04 08:25:21;;;;;;;62.00;19.57;;;;;;;19.99;49.28;94527.22;4975887;28;20065;-94
2023/09/04 08:28:12;;;;;;;36.97;13.82;;;;;;;20.07;48.95;94519.25;4932375;28;20051;-94
2023/09/04 08:31:21;;;;;;;27.92;12.43;;;;;;;20.15;48.67;94526.50;4974376;28;20766;-94
2023/09/04 08:41:55;;;;;;;23.33;8.00;;;;;;;20.20;48.12;94534.00;5005287;28;20133;-94
2023/09/04 08:45:17;;;;;;;23.25;10.55;;;;;;;20.14;48.10;94532.47;4938013;28;20058;-92
2023/09/04 08:48:16;;;;;;;21.50;6.28;;;;;;;20.30;47.47;94514.56;4835885;29;20705;-94
2023/09/04 08:51:26;;;;;;;20.10;6.25;;;;;;;20.27;46.63;94521.81;4849180;29;20074;-95
2023/09/04 08:53:55;;;;;;;35.65;17.35;;;;;;;20.25;46.33;94523.53;4847781;29;20052;-93
2023/09/04 08:56:35;;;;;;;29.63;13.70;;;;;;;20.26;45.51;94530.53;4807597;29;20046;-93
2023/09/04 08:59:12;;;;;;;32.92;9.63;;;;;;;20.27;45.76;94523.78;4952194;23;20049;-90
2023/09/04 09:01:54;;;;;;;14.02;7.47;;;;;;;20.25;45.21;94527.03;4995448;28;20074;-91
2023/09/04 09:04:23;;;;;;;91.65;49.63;;;;;;;20.23;45.22;94526.78;4914695;28;20035;-92
2023/09/04 09:07:51;;;;;;;96.93;37.60;;;;;;;20.24;45.67;94519.28;4915386;29;20039;-94
2023/09/04 09:23:08;;;;;;;79.72;40.70;;;;;;;20.27;45.56;94526.53;5791176;23;20043;-95
2023/09/04 09:29:08;;;;;;;106.90;54.20;;;;;;;20.37;45.50;94522.34;4831737;29;20105;-94
2023/09/04 09:39:11;;;;;;;;;;;;;;;;;;;;;
2023/09/04 09:41:59;;;;;;;95.57;41.92;;;;;;;20.40;45.75;94500.13;4867148;29;20041;-93
2023/09/04 09:44:50;;;;;;;52.30;23.08;;;;;;;20.45;45.99;94498.63;4811544;29;20114;-95
2023/09/04 10:08:09;;;;;;;36.65;14.50;;;;;;;20.53;45.82;94503.16;4951277;28;20067;-93
2023/09/04 10:10:57;;;;;;;22.45;9.70;;;;;;;20.63;45.88;94500.88;4891464;29;20052;-94
2023/09/04 10:14:39;;;;;;;;;;;;;;;;;;;;;
2023/09/04 10:32:54;;;;;;;9.18;3.92;;;;;;;20.60;45.67;94501.88;4966669;26;20050;-94
2023/09/04 10:35:28;;;;;;;6.70;3.78;;;;;;;20.63;45.42;94500.13;4883678;29;20035;-94
2023/09/04 10:37:59;;;;;;;7.18;3.63;;;;;;;20.58;45.74;94500.88;4872697;29;20577;-93
2023/09/04 10:40:39;;;;;;;4.70;3.65;;;;;;;20.55;46.25;94494.41;4913076;29;20511;-94
2023/09/04 10:43:23;;;;;;;4.78;3.03;;;;;;;20.57;45.85;94491.16;4912514;29;20059;-94
2023/09/04 10:46:24;;;;;;;5.68;2.85;;;;;;;20.61;45.72;94486.16;4911267;29;20044;-93
2023/09/04 10:48:53;;;;;;;6.57;3.28;;;;;;;20.66;45.80;94488.16;4895558;29;20035;-93
2023/09/04 10:51:28;;;;;;;3.90;3.28;;;;;;;20.56;45.77;94475.94;4887351;29;20079;-92
2023/09/04 10:54:17;;;;;;;8.85;3.45;;;;;;;20.57;45.42;94478.16;4925925;29;21029;-93
2023/09/04 10:57:11;;;;;;;10.10;3.90;;;;;;;20.56;45.53;94475.94;4929462;28;20047;-94
2023/09/04 10:59:55;;;;;;;95.97;25.83;;;;;;;20.55;45.72;94483.41;4917677;28;20554;-92
2023/09/04 11:03:14;;;;;;;115.18;32.55;;;;;;;20.59;45.27;94478.41;4972235;28;20039;-95
2023/09/04 11:06:12;;;;;;;130.45;35.95;;;;;;;20.62;44.92;94477.41;4945805;23;20054;-93
2023/09/04 11:09:23;;;;;;;;;;;;;;;;;;;;;
2023/09/04 11:12:04;;;;;;;101.05;44.35;;;;;;;20.73;45.02;94479.41;4834887;29;20694;-95
2023/09/04 11:14:35;;;;;;;94.38;41.38;;;;;;;20.69;45.15;94487.91;4900854;29;20055;-94
2023/09/04 11:17:08;;;;;;;132.70;48.58;;;;;;;20.74;45.12;94475.41;4944817;28;20050;-93
2023/09/04 11:19:34;;;;;;;137.10;52.60;;;;;;;20.78;44.99;94484.91;4926572;28;20145;-94
2023/09/04 11:22:22;;;;;;;129.23;53.40;;;;;;;20.83;44.65;94486.91;4902566;28;20062;-92
2023/09/04 11:24:54;;;;;;;146.50;50.38;;;;;;;20.84;44.49;94482.16;4906623;29;20044;-94
2023/09/04 11:27:21;;;;;;;125.63;50.50;;;;;;;20.86;43.69;94485.16;4903223;29;20130;-93
2023/09/04 11:29:47;;;;;;;66.07;28.73;;;;;;;20.86;41.77;94483.16;4911504;29;20043;-93
2023/09/04 11:32:47;;;;;;;49.30;20.40;;;;;;;20.83;42.10;94469.66;4916563;28;20035;-93
2023/09/04 11:36:03;;;;;;;37.07;16.37;;;;;;;20.83;42.21;94475.16;4950891;29;20108;-94
2023/09/04 11:38:31;;;;;;;77.20;24.10;;;;;;;20.80;42.10;94476.16;4896196;29;20279;-93
2023/09/04 11:41:20;;;;;;;51.53;22.17;;;;;;;20.84;42.62;94471.91;4906876;29;20040;-94
2023/09/04 11:46:56;;;;;;;108.25;27.98;;;;;;;20.83;43.01;94473.16;5847453;23;20055;-95
2023/09/04 11:49:36;;;;;;;65.32;21.27;;;;;;;20.85;43.23;94465.16;4942252;23;20623;-94
2023/09/04 11:52:16;;;;;;;76.78;26.13;;;;;;;20.90;42.85;94468.41;4887884;29;20044;-94
2023/09/04 11:54:46;;;;;;;55.80;21.75;;;;;;;20.85;42.67;94464.41;4863058;29;20045;-94
2023/09/04 11:57:16;;;;;;;46.63;17.38;;;;;;;20.86;42.44;94458.41;4841425;29;20041;-92
2023/09/04 11:59:42;;;;;;;38.30;17.80;;;;;;;20.85;42.47;94456.91;4847002;29;20048;-92
2023/09/04 12:02:08;;;;;;;47.00;21.00;;;;;;;20.86;42.55;94466.66;4865395;29;20056;-93
2023/09/04 12:04:35;;;;;;;40.33;19.02;;;;;;;20.91;42.50;94451.41;4864907;29;20059;-93
2023/09/04 12:14:47;;;;;;;63.75;28.35;;;;;;;20.92;42.42;94452.91;4938242;23;20801;-92
2023/09/04 12:17:15;;;;;;;32.42;14.75;;;;;;;20.86;42.34;94438.41;4953300;28;20142;-92
2023/09/04 12:20:00;;;;;;;75.13;18.83;;;;;;;20.88;42.52;94441.41;4941948;28;20047;-92
2023/09/04 12:22:29;;;;;;;47.28;18.98;;;;;;;20.89;42.43;94437.41;4879053;29;20059;-92
2023/09/04 12:25:16;;;;;;;35.42;17.95;;;;;;;20.85;42.86;94443.16;4891687;29;20040;-92
2023/09/04 12:28:24;;;;;;;31.60;15.13;;;;;;;20.85;42.97;94434.19;4881660;29;20135;-93
2023/09/04 12:31:40;;;;;;;37.30;16.92;;;;;;;20.85;42.80;94437.66;4885254;29;20037;-93
2023/09/04 12:34:13;;;;;;;72.25;20.98;;;;;;;20.94;43.06;94428.44;4855016;29;20045;-95
2023/09/04 12:44:25;;;;;;;19.08;11.73;;;;;;;21.04;43.18;94415.16;4900984;29;20389;-92
2023/09/04 12:46:54;;;;;;;20.40;9.00;;;;;;;21.08;42.92;94407.38;4901942;29;20040;-91
2023/09/04 12:49:32;;;;;;;17.20;8.30;;;;;;;21.03;42.78;94411.66;4877644;29;20150;-93
2023/09/04 12:55:39;;;;;;;10.80;6.20;;;;;;;21.12;42.85;94416.13;4829221;29;20138;-94
2023/09/04 12:58:51;;;;;;;16.73;6.25;;;;;;;21.07;43.01;94412.13;4817985;29;20045;-96
2023/09/04 13:03:53;;;;;;;56.03;24.37;;;;;;;21.03;42.32;94403.41;4915701;28;20035;-93
2023/09/04 13:06:20;;;;;;;82.72;31.63;;;;;;;21.07;42.09;94403.88;4895236;29;20035;-90
2023/09/04 13:08:51;;;;;;;81.57;34.92;;;;;;;21.03;42.20;94397.91;4894999;29;20054;-92
2023/09/04 13:11:22;;;;;;;113.57;41.28;;;;;;;21.10;42.28;94407.63;4884766;29;20725;-91
2023/09/04 13:13:48;;;;;;;95.65;38.65;;;;;;;21.12;42.03;94399.63;4905989;29;20067;-92
2023/09/04 13:17:04;;;;;;;101.10;34.80;;;;;;;21.12;42.42;94394.88;4967694;23;21308;-94
2023/09/04 13:19:52;;;;;;;61.70;23.17;;;;;;;21.12;42.04;94391.38;4868094;29;20056;-94
2023/09/04 13:22:22;;;;;;;51.85;23.05;;;;;;;21.11;41.97;94382.38;4860048;29;20076;-95
2023/09/04 13:25:05;;;;;;;50.55;21.10;;;;;;;21.12;42.19;94372.13;4859745;29;20041;-92
2023/09/04 13:30:26;;;;;;;32.22;14.80;;;;;;;21.11;42.04;94374.13;4818970;29;20045;-93
2023/09/04 13:35:51;;;;;;;52.35;17.35;;;;;;;21.17;42.16;94379.63;5129413;23;20061;-94
2023/09/04 13:38:19;;;;;;;49.75;16.73;;;;;;;21.16;41.65;94378.13;4958131;28;20066;-93
2023/09/04 13:40:44;;;;;;;68.82;22.98;;;;;;;21.14;41.74;94370.38;4931765;28;20042;-93
2023/09/04 13:53:42;;;;;;;46.60;13.48;;;;;;;21.18;41.57;94359.88;4891335;29;20068;-92
2023/09/04 13:56:30;;;;;;;;;;;;;;;;;;;;;
2023/09/04 13:59:05;;;;;;;54.65;16.10;;;;;;;21.19;41.65;94355.13;5014562;23;20150;-94
2023/09/04 14:05:00;;;;;;;42.63;13.00;;;;;;;21.22;41.20;94343.13;4975033;28;20117;-93
2023/09/04 14:07:29;;;;;;;34.40;12.10;;;;;;;21.26;40.95;94348.34;4939165;28;20652;-93
2023/09/04 14:09:55;;;;;;;63.75;23.98;;;;;;;;;;4936202;28;20475;-94
2023/09/04 14:12:30;;;;;;;;;;;;;;;;;;;;;
2023/09/04 14:14:57;;;;;;;73.80;30.95;;;;;;;21.21;40.33;94341.66;4924358;28;20399;-92